createdAt,value
2022-11-15T00:00:54.521Z,100302.38
2022-11-15T00:03:23.603Z,100294.97
2022-11-15T00:05:50.467Z,100294.78
2022-11-15T00:08:17.135Z,100291.75
2022-11-15T00:10:44.037Z,100292.41
2022-11-15T00:13:12.769Z,100292.25
2022-11-15T00:15:40.633Z,100287.50
2022-11-15T00:18:12.726Z,100275.78
2022-11-15T00:20:39.189Z,100289.00
2022-11-15T00:23:06.100Z,100290.50
2022-11-15T00:25:33.496Z,100282.31
2022-11-15T00:28:01.492Z,100287.34
2022-11-15T00:30:28.854Z,100280.97
2022-11-15T00:32:55.725Z,100274.38
2022-11-15T00:35:22.853Z,100278.56
2022-11-15T00:37:49.433Z,100271.16
2022-11-15T00:40:16.584Z,100265.44
2022-11-15T00:42:42.994Z,100259.88
2022-11-15T00:45:10.183Z,100263.25
2022-11-15T00:47:36.715Z,100261.22
2022-11-15T00:50:03.455Z,100253.78
2022-11-15T00:52:29.810Z,100265.22
2022-11-15T00:54:56.169Z,100263.00
2022-11-15T00:57:22.595Z,100254.91
2022-11-15T00:59:48.924Z,100260.97
2022-11-15T01:02:15.282Z,100254.59
2022-11-15T01:04:41.767Z,100255.22
2022-11-15T01:07:08.277Z,100257.75
2022-11-15T01:09:34.743Z,100255.72
2022-11-15T01:12:01.171Z,100239.59
2022-11-15T01:14:27.553Z,100237.56
2022-11-15T01:16:54.319Z,100226.81
2022-11-15T01:19:20.777Z,100231.16
2022-11-15T01:21:49.965Z,100233.69
2022-11-15T01:24:16.640Z,100222.91
2022-11-15T01:26:42.986Z,100223.56
2022-11-15T01:29:09.300Z,100224.38
2022-11-15T01:31:35.725Z,100217.19
2022-11-15T01:34:02.129Z,100213.63
2022-11-15T01:36:28.484Z,100205.38
2022-11-15T01:38:56.178Z,100215.13
2022-11-15T01:41:26.168Z,100210.41
2022-11-15T01:43:55.669Z,100208.38
2022-11-15T01:46:39.243Z,100205.50
2022-11-15T01:49:14.052Z,100200.75
2022-11-15T01:51:40.746Z,100203.47
2022-11-15T01:54:12.465Z,100205.97
2022-11-15T01:56:46.435Z,100196.72
2022-11-15T01:59:13.513Z,100191.31
2022-11-15T02:01:40.023Z,100199.84
2022-11-15T02:04:12.592Z,100185.41
2022-11-15T02:06:40.618Z,100182.50
2022-11-15T02:09:06.985Z,100181.50
2022-11-15T02:11:33.758Z,100184.84
2022-11-15T02:14:02.177Z,100186.31
2022-11-15T02:16:28.439Z,100181.81
2022-11-15T02:19:14.359Z,100178.91
2022-11-15T02:21:51.137Z,100167.78
2022-11-15T02:24:49.563Z,100165.94
2022-11-15T02:27:50.818Z,100166.56
2022-11-15T02:30:21.438Z,100168.25
2022-11-15T02:32:55.582Z,100166.19
2022-11-15T02:35:36.658Z,100167.06
2022-11-15T02:38:32.178Z,100162.50
2022-11-15T02:41:10.214Z,100155.25
2022-11-15T02:43:58.133Z,100159.81
2022-11-15T02:47:03.301Z,100158.78
2022-11-15T02:49:33.153Z,100161.31
2022-11-15T02:51:59.514Z,100168.56
2022-11-15T02:54:33.102Z,100160.28
2022-11-15T02:57:05.386Z,100168.19
2022-11-15T02:59:43.940Z,100159.91
2022-11-15T03:02:21.097Z,100157.88
2022-11-15T03:04:57.133Z,100164.75
2022-11-15T03:07:30.261Z,100163.06
2022-11-15T03:10:18.792Z,100160.84
2022-11-15T03:12:55.416Z,100155.28
2022-11-15T03:15:37.337Z,100156.78
2022-11-15T03:18:13.746Z,100164.63
2022-11-15T03:20:40.947Z,100158.44
2022-11-15T03:23:10.042Z,100163.63
2022-11-15T03:25:41.551Z,100157.88
2022-11-15T03:28:12.600Z,100159.53
2022-11-15T03:30:40.832Z,100163.91
2022-11-15T03:33:09.143Z,100158.34
2022-11-15T03:35:40.106Z,100161.50
2022-11-15T03:38:17.708Z,100164.81
2022-11-15T03:40:50.178Z,100161.75
2022-11-15T03:43:30.793Z,100165.09
2022-11-15T03:46:03.139Z,100158.50
2022-11-15T03:48:37.166Z,100151.91
2022-11-15T03:51:05.073Z,100156.09
2022-11-15T03:53:32.983Z,100150.53
2022-11-15T03:55:59.603Z,100153.88
2022-11-15T03:58:26.127Z,100158.03
2022-11-15T04:00:52.595Z,100155.16
2022-11-15T04:03:18.970Z,100149.59
2022-11-15T04:05:45.306Z,100148.38
2022-11-15T04:08:11.633Z,100146.34
2022-11-15T04:10:38.121Z,100151.38
2022-11-15T04:13:04.513Z,100143.28
2022-11-15T04:15:30.929Z,100142.09
2022-11-15T04:17:58.109Z,100143.75
2022-11-15T04:20:46.101Z,100146.06
2022-11-15T04:23:35.660Z,100147.91
2022-11-15T04:26:05.217Z,100147.53
2022-11-15T04:28:31.856Z,100151.88
2022-11-15T04:30:58.314Z,100150.88
2022-11-15T04:33:24.698Z,100144.47
2022-11-15T04:36:30.295Z,100147.81
2022-11-15T04:38:56.729Z,100144.72
2022-11-15T04:41:23.073Z,100149.09
2022-11-15T04:43:49.403Z,100151.59
2022-11-15T04:46:15.755Z,100154.13
2022-11-15T04:48:42.153Z,100157.47
2022-11-15T04:51:08.523Z,100151.03
2022-11-15T04:53:35.157Z,100144.59
2022-11-15T04:56:01.575Z,100147.13
2022-11-15T04:58:27.925Z,100152.50
2022-11-15T05:00:54.479Z,100157.69
2022-11-15T05:03:39.279Z,100140.69
2022-11-15T05:06:06.370Z,100151.28
2022-11-15T05:08:33.108Z,100152.94
2022-11-15T05:10:59.490Z,100144.88
2022-11-15T05:13:25.865Z,100152.78
2022-11-15T05:15:52.205Z,100145.53
2022-11-15T05:18:23.335Z,100147.00
2022-11-15T05:20:50.220Z,100147.81
2022-11-15T05:23:16.559Z,100142.25
2022-11-15T05:25:43.005Z,100129.59
2022-11-15T05:28:09.387Z,100126.91
2022-11-15T05:30:35.737Z,100124.03
2022-11-15T05:33:02.556Z,100128.38
2022-11-15T05:35:39.654Z,100134.22
2022-11-15T05:38:06.185Z,100131.53
2022-11-15T05:40:33.506Z,100131.34
2022-11-15T05:43:02.387Z,100138.22
2022-11-15T05:45:29.711Z,100129.91
2022-11-15T05:47:59.542Z,100128.69
2022-11-15T05:50:26.609Z,100129.56
2022-11-15T05:52:53.090Z,100128.34
2022-11-15T05:55:19.566Z,100127.31
2022-11-15T05:57:45.947Z,100122.56
2022-11-15T06:00:12.980Z,100120.50
2022-11-15T06:02:39.363Z,100123.00
2022-11-15T06:05:06.213Z,100113.03
2022-11-15T06:07:32.739Z,100119.91
2022-11-15T06:09:59.114Z,100124.28
2022-11-15T06:12:25.484Z,100114.13
2022-11-15T06:14:51.831Z,100119.34
2022-11-15T06:17:18.151Z,100113.75
2022-11-15T06:19:44.480Z,100118.94
2022-11-15T06:22:10.861Z,100126.84
2022-11-15T06:24:37.222Z,100123.94
2022-11-15T06:27:03.678Z,100120.22
2022-11-15T06:29:30.025Z,100123.56
2022-11-15T06:31:56.369Z,100125.22
2022-11-15T06:34:22.837Z,100126.06
2022-11-15T06:36:49.269Z,100123.38
2022-11-15T06:39:15.692Z,100129.41
2022-11-15T06:41:42.069Z,100126.28
2022-11-15T06:44:08.408Z,100135.38
2022-11-15T06:46:34.795Z,100133.91
2022-11-15T06:49:05.195Z,100133.47
2022-11-15T06:51:34.652Z,100140.91
2022-11-15T06:54:02.184Z,100139.63
2022-11-15T06:56:28.722Z,100136.91
2022-11-15T06:58:56.210Z,100141.69
2022-11-15T07:01:22.612Z,100144.38
2022-11-15T07:03:48.972Z,100145.22
2022-11-15T07:06:15.403Z,100143.34
2022-11-15T07:08:42.689Z,100154.78
2022-11-15T07:11:09.927Z,100150.03
2022-11-15T07:13:38.013Z,100156.91
2022-11-15T07:16:06.530Z,100153.00
2022-11-15T07:18:36.054Z,100161.53
2022-11-15T07:21:06.692Z,100161.13
2022-11-15T07:23:34.093Z,100156.16
2022-11-15T07:26:00.718Z,100167.59
2022-11-15T07:28:28.065Z,100161.81
2022-11-15T07:30:54.691Z,100163.28
2022-11-15T07:33:21.035Z,100164.78
2022-11-15T07:35:50.552Z,100168.94
2022-11-15T07:38:21.372Z,100171.47
2022-11-15T07:40:48.525Z,100161.31
2022-11-15T07:43:14.987Z,100169.00
2022-11-15T07:45:43.647Z,100164.03
2022-11-15T07:48:10.583Z,100158.47
2022-11-15T07:50:36.909Z,100159.13
2022-11-15T07:53:03.292Z,100161.59
2022-11-15T07:55:30.610Z,100160.19
2022-11-15T07:58:04.694Z,100159.97
2022-11-15T08:00:31.952Z,100161.44
2022-11-15T08:03:10.581Z,100162.94
2022-11-15T08:05:38.160Z,100156.53
2022-11-15T08:08:05.443Z,100168.81
2022-11-15T08:10:34.230Z,100162.19
2022-11-15T08:13:06.711Z,100160.09
2022-11-15T08:15:33.837Z,100166.97
2022-11-15T08:18:04.616Z,100159.53
2022-11-15T08:20:31.628Z,100167.22
2022-11-15T08:22:59.000Z,100159.94
2022-11-15T08:25:29.478Z,100169.34
2022-11-15T08:27:57.987Z,100166.44
2022-11-15T08:30:27.766Z,100163.34
2022-11-15T08:32:54.687Z,100166.69
2022-11-15T08:35:27.677Z,100163.78
2022-11-15T08:37:55.608Z,100160.66
2022-11-15T08:40:22.005Z,100158.63
2022-11-15T08:42:48.457Z,100155.50
2022-11-15T08:45:15.415Z,100151.56
2022-11-15T08:47:41.748Z,100146.63
2022-11-15T08:50:08.591Z,100145.41
2022-11-15T08:52:35.054Z,100149.53
2022-11-15T08:55:01.428Z,100150.00
2022-11-15T08:57:31.245Z,100152.09
2022-11-15T08:59:58.102Z,100146.69
2022-11-15T09:02:24.551Z,100149.00
2022-11-15T09:04:50.899Z,100145.88
2022-11-15T09:07:17.436Z,100143.00
2022-11-15T09:09:43.918Z,100137.38
2022-11-15T09:12:10.530Z,100139.66
2022-11-15T09:14:36.922Z,100145.53
2022-11-15T09:17:04.047Z,100143.22
2022-11-15T09:19:30.441Z,100138.06
2022-11-15T09:21:56.789Z,100140.16
2022-11-15T09:24:23.417Z,100136.63
2022-11-15T09:26:52.172Z,100138.50
2022-11-15T09:29:19.671Z,100142.28
2022-11-15T09:31:46.063Z,100146.06
2022-11-15T09:34:12.867Z,100137.78
2022-11-15T09:36:39.278Z,100129.47
2022-11-15T09:39:05.634Z,100139.28
2022-11-15T09:41:47.447Z,100136.38
2022-11-15T09:44:29.264Z,100132.81
2022-11-15T09:47:10.062Z,100134.50
2022-11-15T09:49:36.594Z,100126.78
2022-11-15T09:52:03.685Z,100136.16
2022-11-15T09:54:52.609Z,100136.78
2022-11-15T09:57:32.236Z,100134.72
2022-11-15T10:03:16.457Z,100131.19
2022-11-15T10:05:51.593Z,100117.41
2022-11-15T10:08:36.899Z,100122.44
2022-11-15T10:11:36.051Z,100127.44
2022-11-15T10:14:05.291Z,100126.19
2022-11-15T10:16:46.806Z,100131.34
2022-11-15T10:19:25.433Z,100123.69
2022-11-15T10:22:05.719Z,100117.84
2022-11-15T10:24:38.023Z,100114.69
2022-11-15T10:27:14.303Z,100110.75
2022-11-15T10:29:45.998Z,100107.41
2022-11-15T10:32:14.579Z,100104.06
2022-11-15T10:34:41.644Z,100112.38
2022-11-15T10:37:08.213Z,100097.56
2022-11-15T10:39:35.022Z,100102.16
2022-11-15T10:42:28.933Z,100098.63
2022-11-15T10:44:55.761Z,100103.59
2022-11-15T10:47:37.766Z,100103.81
2022-11-15T10:50:28.323Z,100092.53
2022-11-15T10:52:55.081Z,100094.22
2022-11-15T10:55:26.190Z,100076.69
2022-11-15T10:57:55.452Z,100080.03
2022-11-15T11:00:22.052Z,100073.34
2022-11-15T11:03:07.920Z,100077.28
2022-11-15T11:05:42.276Z,100072.47
2022-11-15T11:08:15.459Z,100067.25
2022-11-15T11:11:02.103Z,100061.38
2022-11-15T11:13:31.161Z,100060.75
2022-11-15T11:16:15.881Z,100054.25
2022-11-15T11:19:16.521Z,100053.56
2022-11-15T11:22:20.993Z,100041.03
2022-11-15T11:24:53.085Z,100043.91
2022-11-15T11:27:41.303Z,100039.72
2022-11-15T11:30:10.810Z,100038.66
2022-11-15T11:32:54.847Z,100040.13
2022-11-15T11:35:46.260Z,100032.84
2022-11-15T11:38:16.136Z,100027.41
2022-11-15T11:41:16.894Z,100025.28
2022-11-15T11:44:04.804Z,100010.69
2022-11-15T11:46:50.507Z,100017.75
2022-11-15T11:49:24.368Z,100011.53
2022-11-15T11:52:08.701Z,100011.97
2022-11-15T11:54:53.705Z,100001.56
2022-11-15T11:57:41.241Z,100005.75
2022-11-15T12:00:19.668Z,100005.56
2022-11-15T12:02:55.455Z,100015.41
2022-11-15T12:05:42.741Z,100001.25
2022-11-15T12:08:31.835Z,100001.25
2022-11-15T12:11:18.247Z,99985.78
2022-11-15T12:13:47.821Z,99983.72
2022-11-15T12:16:19.906Z,99987.03
2022-11-15T12:18:51.731Z,99991.19
2022-11-15T12:21:35.757Z,99988.03
2022-11-15T12:24:18.810Z,99983.22
2022-11-15T12:27:01.305Z,99988.41
2022-11-15T12:29:45.842Z,99973.59
2022-11-15T12:32:25.093Z,99967.13
2022-11-15T12:34:53.113Z,99975.25
2022-11-15T12:37:50.066Z,99966.06
2022-11-15T12:40:21.352Z,99970.84
2022-11-15T12:42:59.649Z,99960.00
2022-11-15T12:45:32.524Z,99955.63
2022-11-15T12:48:17.304Z,99952.91
2022-11-15T12:50:55.897Z,99954.78
2022-11-15T12:53:28.664Z,99952.69
2022-11-15T12:56:04.268Z,99952.69
2022-11-15T12:58:58.165Z,99952.22
2022-11-15T13:01:36.869Z,99939.28
2022-11-15T13:04:25.344Z,99943.06
2022-11-15T13:06:54.079Z,99943.06
2022-11-15T13:09:38.337Z,99939.50
2022-11-15T13:12:13.526Z,99937.03
2022-11-15T13:14:44.449Z,99944.34
2022-11-15T13:17:18.136Z,99944.53
2022-11-15T13:19:47.413Z,99938.06
2022-11-15T13:22:32.330Z,99951.03
2022-11-15T13:25:01.643Z,99942.28
2022-11-15T13:27:28.285Z,99935.19
2022-11-15T13:29:54.748Z,99932.50
2022-11-15T13:32:22.175Z,99931.44
2022-11-15T13:34:53.577Z,99933.94
2022-11-15T13:37:22.974Z,99921.78
2022-11-15T13:39:50.232Z,99921.78
2022-11-15T13:42:21.290Z,99918.84
2022-11-15T13:45:02.497Z,99918.84
2022-11-15T13:47:30.642Z,99917.22
2022-11-15T13:50:01.878Z,99903.03
2022-11-15T13:52:34.847Z,99902.22
2022-11-15T13:55:09.280Z,99895.97
2022-11-15T13:57:44.478Z,99901.38
2022-11-15T14:00:29.327Z,99884.25
2022-11-15T14:02:57.515Z,99890.75
2022-11-15T14:05:26.787Z,99889.69
2022-11-15T14:08:03.449Z,99892.41
2022-11-15T14:10:38.329Z,99871.78
2022-11-15T14:13:11.602Z,99878.47
2022-11-15T14:15:39.692Z,99876.81
2022-11-15T14:18:06.947Z,99867.47
2022-11-15T14:20:37.959Z,99872.28
2022-11-15T14:23:40.045Z,99857.72
2022-11-15T14:26:11.898Z,99853.19
2022-11-15T14:28:41.190Z,99853.25
2022-11-15T14:31:14.091Z,99851.19
2022-11-15T14:33:41.034Z,99846.06
2022-11-15T14:36:16.272Z,99847.56
2022-11-15T14:38:43.858Z,99841.34
2022-11-15T14:41:27.273Z,99845.56
2022-11-15T14:43:54.233Z,99842.91
2022-11-15T14:46:20.757Z,99848.38
2022-11-15T14:48:47.170Z,99846.28
2022-11-15T14:51:16.498Z,99834.44
2022-11-15T14:53:43.995Z,99837.00
2022-11-15T14:56:11.386Z,99841.16
2022-11-15T14:58:37.778Z,99839.09
2022-11-15T15:01:13.756Z,99842.50
2022-11-15T15:03:40.053Z,99832.69
2022-11-15T15:06:06.577Z,99837.91
2022-11-15T15:08:33.143Z,99827.34
2022-11-15T15:10:59.798Z,99824.69
2022-11-15T15:13:26.208Z,99820.13
2022-11-15T15:15:53.231Z,99816.66
2022-11-15T15:18:20.858Z,99811.25
2022-11-15T15:20:55.102Z,99815.66
2022-11-15T15:23:21.832Z,99807.56
2022-11-15T15:25:50.285Z,99805.72
2022-11-15T15:28:16.925Z,99796.59
2022-11-15T15:30:43.260Z,99798.28
2022-11-15T15:33:09.622Z,99799.97
2022-11-15T15:35:37.490Z,99794.53
2022-11-15T15:38:05.912Z,99788.94
2022-11-15T15:40:34.181Z,99795.81
2022-11-15T15:43:01.341Z,99791.25
2022-11-15T15:45:28.560Z,99779.41
2022-11-15T15:47:54.978Z,99782.75
2022-11-15T15:50:29.838Z,99776.13
2022-11-15T15:52:59.106Z,99777.56
2022-11-15T15:55:26.194Z,99768.44
2022-11-15T15:57:53.304Z,99771.75
2022-11-15T16:00:21.367Z,99759.72
2022-11-15T16:02:47.940Z,99759.53
2022-11-15T16:05:14.369Z,99758.28
2022-11-15T16:07:41.445Z,99757.06
2022-11-15T16:10:29.155Z,99752.06
2022-11-15T16:12:56.932Z,99748.94
2022-11-15T16:15:25.666Z,99755.59
2022-11-15T16:17:56.984Z,99751.25
2022-11-15T16:20:35.429Z,99745.22
2022-11-15T16:23:08.707Z,99751.66
2022-11-15T16:25:40.731Z,99743.56
2022-11-15T16:28:25.415Z,99738.16
2022-11-15T16:31:04.297Z,99738.16
2022-11-15T16:33:31.339Z,99736.50
2022-11-15T16:35:58.297Z,99726.94
2022-11-15T16:38:26.762Z,99735.03
2022-11-15T16:40:53.256Z,99727.16
2022-11-15T16:43:19.644Z,99730.06
2022-11-15T16:45:46.193Z,99724.03
2022-11-15T16:48:27.162Z,99716.16
2022-11-15T16:50:58.768Z,99715.53
2022-11-15T16:53:26.228Z,99716.16
2022-11-15T16:55:52.693Z,99713.69
2022-11-15T16:58:19.032Z,99711.59
2022-11-15T17:00:46.158Z,99705.56
2022-11-15T17:03:12.663Z,99707.88
2022-11-15T17:05:39.045Z,99702.06
2022-11-15T17:08:06.430Z,99703.31
2022-11-15T17:10:32.790Z,99708.28
2022-11-15T17:12:59.137Z,99696.22
2022-11-15T17:15:25.571Z,99703.69
2022-11-15T17:17:53.852Z,99699.72
2022-11-15T17:20:22.647Z,99695.78
2022-11-15T17:22:48.994Z,99695.34
2022-11-15T17:25:15.482Z,99695.78
2022-11-15T17:27:42.318Z,99691.63
2022-11-15T17:30:19.968Z,99699.94
2022-11-15T17:32:47.801Z,99697.66
2022-11-15T17:35:15.853Z,99694.53
2022-11-15T17:37:42.574Z,99684.97
2022-11-15T17:40:09.608Z,99687.03
2022-11-15T17:42:35.976Z,99682.88
2022-11-15T17:45:08.185Z,99696.59
2022-11-15T17:47:36.369Z,99689.53
2022-11-15T17:50:02.947Z,99692.44
2022-11-15T17:52:29.297Z,99688.06
2022-11-15T17:54:55.630Z,99687.47
2022-11-15T17:57:21.969Z,99691.81
2022-11-15T18:00:01.076Z,99684.78
2022-11-15T18:02:27.400Z,99692.88
2022-11-15T18:04:53.883Z,99692.03
2022-11-15T18:07:20.260Z,99689.53
2022-11-15T18:09:46.674Z,99683.09
2022-11-15T18:12:13.260Z,99677.91
2022-11-15T18:14:39.655Z,99683.31
2022-11-15T18:17:06.000Z,99682.50
2022-11-15T18:19:32.528Z,99684.78
2022-11-15T18:22:00.743Z,99684.53
2022-11-15T18:24:29.925Z,99682.28
2022-11-15T18:26:57.821Z,99675.84
2022-11-15T18:29:24.892Z,99675.25
2022-11-15T18:31:55.449Z,99673.78
2022-11-15T18:34:28.738Z,99666.72
2022-11-15T18:36:55.065Z,99662.78
2022-11-15T18:39:21.412Z,99655.94
2022-11-15T18:41:48.636Z,99657.19
2022-11-15T18:44:15.757Z,99662.78
2022-11-15T18:46:44.815Z,99653.22
2022-11-15T18:49:13.100Z,99644.75
2022-11-15T18:51:42.895Z,99647.00
2022-11-15T18:54:11.772Z,99648.28
2022-11-15T18:56:39.005Z,99636.44
2022-11-15T18:59:06.375Z,99643.06
2022-11-15T19:01:38.184Z,99635.38
2022-11-15T19:04:22.153Z,99625.00
2022-11-15T19:06:50.225Z,99622.06
2022-11-15T19:09:18.825Z,99613.34
2022-11-15T19:11:47.242Z,99613.97
2022-11-15T19:14:16.351Z,99627.88
2022-11-15T19:16:45.059Z,99617.69
2022-11-15T19:19:19.880Z,99610.81
2022-11-15T19:21:46.750Z,99605.22
2022-11-15T19:24:13.448Z,99606.47
2022-11-15T19:26:40.250Z,99619.53
2022-11-15T19:29:08.031Z,99619.31
2022-11-15T19:31:34.472Z,99622.63
2022-11-15T19:34:04.470Z,99605.16
2022-11-15T19:36:33.368Z,99596.63
2022-11-15T19:39:05.153Z,99604.28
2022-11-15T19:41:31.900Z,99598.69
2022-11-15T19:43:58.259Z,99601.19
2022-11-15T19:46:25.033Z,99596.19
2022-11-15T19:48:51.749Z,99598.66
2022-11-15T19:51:21.905Z,99596.56
2022-11-15T19:53:49.675Z,99592.84
2022-11-15T19:56:18.413Z,99588.03
2022-11-15T19:58:45.743Z,99579.72
2022-11-15T20:01:19.765Z,99577.41
2022-11-15T20:03:47.724Z,99575.56
2022-11-15T20:06:16.535Z,99571.81
2022-11-15T20:08:43.804Z,99569.91
2022-11-15T20:11:11.047Z,99562.44
2022-11-15T20:13:37.478Z,99565.13
2022-11-15T20:16:04.616Z,99559.72
2022-11-15T20:18:31.317Z,99557.66
2022-11-15T20:20:59.036Z,99560.34
2022-11-15T20:23:26.838Z,99553.88
2022-11-15T20:25:53.999Z,99551.19
2022-11-15T20:28:23.409Z,99551.81
2022-11-15T20:30:53.206Z,99554.28
2022-11-15T20:33:20.509Z,99548.88
2022-11-15T20:35:46.911Z,99551.38
2022-11-15T20:38:13.310Z,99553.00
2022-11-15T20:40:40.690Z,99552.81
2022-11-15T20:43:11.219Z,99550.94
2022-11-15T20:45:38.489Z,99550.72
2022-11-15T20:48:05.282Z,99548.84
2022-11-15T20:50:46.394Z,99548.63
2022-11-15T20:53:15.337Z,99550.28
2022-11-15T20:55:44.001Z,99541.09
2022-11-15T20:58:11.223Z,99538.41
2022-11-15T21:00:37.938Z,99532.19
2022-11-15T21:03:08.145Z,99544.66
2022-11-15T21:05:37.355Z,99538.41
2022-11-15T21:08:03.907Z,99536.56
2022-11-15T21:10:49.276Z,99534.69
2022-11-15T21:13:15.664Z,99535.50
2022-11-15T21:15:42.049Z,99535.50
2022-11-15T21:18:08.596Z,99536.31
2022-11-15T21:20:43.935Z,99534.44
2022-11-15T21:23:11.589Z,99533.41
2022-11-15T21:25:37.956Z,99531.53
2022-11-15T21:28:04.506Z,99525.06
2022-11-15T21:30:30.942Z,99526.94
2022-11-15T21:32:57.434Z,99512.59
2022-11-15T21:35:24.121Z,99515.31
2022-11-15T21:37:56.525Z,99505.56
2022-11-15T21:40:24.393Z,99520.34
2022-11-15T21:42:50.785Z,99516.78
2022-11-15T21:45:17.237Z,99506.22
2022-11-15T21:47:46.456Z,99513.69
2022-11-15T21:50:13.704Z,99503.09
2022-11-15T21:52:40.574Z,99497.94
2022-11-15T21:55:07.575Z,99503.53
2022-11-15T21:57:34.090Z,99509.19
2022-11-15T22:00:19.221Z,99500.22
2022-11-15T22:02:45.696Z,99498.56
2022-11-15T22:05:12.068Z,99497.75
2022-11-15T22:07:38.532Z,99493.16
2022-11-15T22:10:05.691Z,99487.97
2022-11-15T22:12:32.040Z,99482.81
2022-11-15T22:14:58.433Z,99482.81
2022-11-15T22:17:44.929Z,99478.22
2022-11-15T22:20:29.976Z,99476.75
2022-11-15T22:22:58.806Z,99470.72
2022-11-15T22:25:26.300Z,99468.22
2022-11-15T22:27:53.503Z,99471.16
2022-11-15T22:30:20.597Z,99465.97
2022-11-15T22:32:47.452Z,99464.09
2022-11-15T22:35:14.269Z,99464.31
2022-11-15T22:37:41.122Z,99454.56
2022-11-15T22:40:08.453Z,99452.69
2022-11-15T22:42:34.889Z,99454.34
2022-11-15T22:45:01.238Z,99445.41
2022-11-15T22:47:27.643Z,99447.06
2022-11-15T22:49:54.113Z,99443.31
2022-11-15T22:52:20.515Z,99448.72
2022-11-15T22:54:46.902Z,99445.19
2022-11-15T22:57:13.273Z,99441.44
2022-11-15T22:59:41.036Z,99442.28
2022-11-15T23:02:07.381Z,99440.38
2022-11-15T23:04:33.875Z,99448.28
2022-11-15T23:07:00.255Z,99443.69
2022-11-15T23:09:26.705Z,99438.28
2022-11-15T23:12:12.075Z,99449.72
2022-11-15T23:14:38.472Z,99446.78
2022-11-15T23:17:04.843Z,99443.25
2022-11-15T23:19:31.337Z,99446.78
2022-11-15T23:22:16.349Z,99440.56
2022-11-15T23:24:42.744Z,99444.91
2022-11-15T23:27:09.201Z,99444.06
2022-11-15T23:29:56.722Z,99434.34
2022-11-15T23:32:41.875Z,99438.91
2022-11-15T23:35:08.501Z,99433.72
2022-11-15T23:37:35.427Z,99429.56
2022-11-15T23:40:01.880Z,99420.84
2022-11-15T23:42:28.274Z,99423.78
2022-11-15T23:44:54.661Z,99426.69
2022-11-15T23:47:21.168Z,99420.91
2022-11-15T23:49:47.558Z,99421.13
2022-11-15T23:52:15.489Z,99418.88
2022-11-15T23:54:42.179Z,99415.56
2022-11-15T23:57:11.820Z,99415.19
2022-11-15T23:59:44.773Z,99412.69
